Decoded Metar for KOLU (COLUMBUS MUNI in NE, USA) (IATA:OLU) | Meteo·Mobile Aviation Weather
aviador You're here:

KOLU Decoded Metar

COLUMBUS MUNI in NE, USA
Report Time2018-11-19 20:56:00
UTC Time2018-11-19 21:52:45
Flight Rules vfr VFR
Wind350° at 11 kt
W.Decomp.*RWY 32: 10.2 kt HW 4.1 kt RCW
RWY 02: 8.7 kt HW 6.8 kt LCW
W.Rank350° ranks 13
Current wind is above 350° avg. (9.5)
Visibility9999 m
Phenomena:N/A
Clouds:N/A
Expected CloudBase > 2,800 ft AGL from Temp-Dew spread
CeilingNone
Temp03°C (ISA -9)
Dew Point-4°C (60% RH)
AAT-3.5°C
QNH1023 hPa
Density Alt69 ft
Elevation1,444 ft
Report Wrong Elevation
Raw Report
KOLU 192056Z AUTO 35011KT 10SM 03/M04 A3020 RMK AO2 SLP243
T00281044 53011 $=

Extra information for KOLU:More info

Metar Taf Metar & Taf Last 4 Metars F.Rules Stats Wind Profile Meteogram Temp Stats Airport Information Weather charts Add Link Nearby VenuesMetar ALERT Operation Metar Decoded Social comments

AIRNAV info for KOLU